sensor_id;sensor_type;location;lat;lon;timestamp;P1;durP1;ratioP1;P2;durP2;ratioP2
71462;SDS011;59266;52.608;13.260;2023-07-16T00:02:01;5.65;;;2.60;;
71462;SDS011;59266;52.608;13.260;2023-07-16T00:04:32;7.00;;;2.53;;
71462;SDS011;59266;52.608;13.260;2023-07-16T00:06:59;5.38;;;2.45;;
71462;SDS011;59266;52.608;13.260;2023-07-16T00:09:27;6.72;;;2.67;;
71462;SDS011;59266;52.608;13.260;2023-07-16T00:11:56;6.60;;;2.67;;
71462;SDS011;59266;52.608;13.260;2023-07-16T00:14:23;5.47;;;2.50;;
71462;SDS011;59266;52.608;13.260;2023-07-16T00:16:50;7.43;;;2.53;;
71462;SDS011;59266;52.608;13.260;2023-07-16T00:19:18;6.75;;;2.47;;
71462;SDS011;59266;52.608;13.260;2023-07-16T00:21:45;6.78;;;2.50;;
71462;SDS011;59266;52.608;13.260;2023-07-16T00:24:12;7.00;;;2.50;;
71462;SDS011;59266;52.608;13.260;2023-07-16T00:26:39;5.32;;;2.20;;
71462;SDS011;59266;52.608;13.260;2023-07-16T00:29:06;5.95;;;3.00;;
71462;SDS011;59266;52.608;13.260;2023-07-16T00:31:33;5.93;;;2.50;;
71462;SDS011;59266;52.608;13.260;2023-07-16T00:34:04;7.25;;;2.60;;
71462;SDS011;59266;52.608;13.260;2023-07-16T00:36:31;6.63;;;2.38;;
71462;SDS011;59266;52.608;13.260;2023-07-16T00:39:00;6.20;;;2.67;;
71462;SDS011;59266;52.608;13.260;2023-07-16T00:41:28;6.85;;;2.30;;
71462;SDS011;59266;52.608;13.260;2023-07-16T00:43:54;5.68;;;2.53;;
71462;SDS011;59266;52.608;13.260;2023-07-16T00:46:21;5.40;;;2.53;;
71462;SDS011;59266;52.608;13.260;2023-07-16T00:48:48;7.80;;;2.75;;
71462;SDS011;59266;52.608;13.260;2023-07-16T00:51:15;5.15;;;2.15;;
71462;SDS011;59266;52.608;13.260;2023-07-16T00:53:43;5.72;;;2.80;;
71462;SDS011;59266;52.608;13.260;2023-07-16T00:56:11;6.90;;;2.70;;
71462;SDS011;59266;52.608;13.260;2023-07-16T00:58:43;6.63;;;2.72;;
71462;SDS011;59266;52.608;13.260;2023-07-16T01:01:10;7.95;;;2.80;;
71462;SDS011;59266;52.608;13.260;2023-07-16T01:03:37;6.65;;;2.67;;
71462;SDS011;59266;52.608;13.260;2023-07-16T01:06:07;6.10;;;2.70;;
71462;SDS011;59266;52.608;13.260;2023-07-16T01:08:45;6.93;;;2.78;;
71462;SDS011;59266;52.608;13.260;2023-07-16T01:11:14;9.07;;;2.80;;
71462;SDS011;59266;52.608;13.260;2023-07-16T01:13:41;6.53;;;3.17;;
71462;SDS011;59266;52.608;13.260;2023-07-16T01:16:18;6.40;;;2.80;;
71462;SDS011;59266;52.608;13.260;2023-07-16T01:18:48;6.78;;;3.08;;
71462;SDS011;59266;52.608;13.260;2023-07-16T01:21:16;7.00;;;2.90;;
71462;SDS011;59266;52.608;13.260;2023-07-16T01:29:37;7.68;;;2.72;;
71462;SDS011;59266;52.608;13.260;2023-07-16T01:32:12;6.95;;;2.83;;
71462;SDS011;59266;52.608;13.260;2023-07-16T01:34:40;7.22;;;3.53;;
71462;SDS011;59266;52.608;13.260;2023-07-16T01:37:10;8.13;;;3.40;;
71462;SDS011;59266;52.608;13.260;2023-07-16T01:39:37;8.18;;;3.88;;
71462;SDS011;59266;52.608;13.260;2023-07-16T01:42:09;8.88;;;3.75;;
71462;SDS011;59266;52.608;13.260;2023-07-16T01:44:36;8.40;;;3.85;;
71462;SDS011;59266;52.608;13.260;2023-07-16T01:49:39;8.18;;;3.90;;
71462;SDS011;59266;52.608;13.260;2023-07-16T01:52:08;7.95;;;3.97;;
71462;SDS011;59266;52.608;13.260;2023-07-16T01:54:36;11.98;;;4.93;;
71462;SDS011;59266;52.608;13.260;2023-07-16T01:57:03;8.18;;;3.92;;
71462;SDS011;59266;52.608;13.260;2023-07-16T01:59:30;9.82;;;4.10;;
71462;SDS011;59266;52.608;13.260;2023-07-16T02:01:58;9.00;;;4.22;;
71462;SDS011;59266;52.608;13.260;2023-07-16T02:04:25;8.50;;;3.95;;
71462;SDS011;59266;52.608;13.260;2023-07-16T02:06:52;8.43;;;4.32;;
71462;SDS011;59266;52.608;13.260;2023-07-16T02:09:19;8.75;;;4.05;;
71462;SDS011;59266;52.608;13.260;2023-07-16T02:11:47;7.75;;;3.90;;
71462;SDS011;59266;52.608;13.260;2023-07-16T02:14:14;8.18;;;3.88;;
71462;SDS011;59266;52.608;13.260;2023-07-16T02:16:42;10.50;;;4.00;;
71462;SDS011;59266;52.608;13.260;2023-07-16T02:19:09;8.23;;;4.28;;
71462;SDS011;59266;52.608;13.260;2023-07-16T02:21:36;9.10;;;4.20;;
71462;SDS011;59266;52.608;13.260;2023-07-16T02:24:03;8.93;;;3.70;;
71462;SDS011;59266;52.608;13.260;2023-07-16T02:26:30;10.38;;;3.72;;
71462;SDS011;59266;52.608;13.260;2023-07-16T02:28:56;8.05;;;4.20;;
71462;SDS011;59266;52.608;13.260;2023-07-16T02:31:28;8.32;;;4.00;;
71462;SDS011;59266;52.608;13.260;2023-07-16T02:33:55;8.27;;;3.67;;
71462;SDS011;59266;52.608;13.260;2023-07-16T02:36:22;8.38;;;3.70;;
71462;SDS011;59266;52.608;13.260;2023-07-16T02:38:50;12.40;;;4.07;;
71462;SDS011;59266;52.608;13.260;2023-07-16T02:41:17;7.90;;;3.90;;
71462;SDS011;59266;52.608;13.260;2023-07-16T02:43:45;6.80;;;3.75;;
71462;SDS011;59266;52.608;13.260;2023-07-16T02:46:12;9.25;;;4.10;;
71462;SDS011;59266;52.608;13.260;2023-07-16T02:48:39;9.15;;;4.05;;
71462;SDS011;59266;52.608;13.260;2023-07-16T02:51:06;10.40;;;4.30;;
71462;SDS011;59266;52.608;13.260;2023-07-16T02:53:33;7.10;;;3.45;;
71462;SDS011;59266;52.608;13.260;2023-07-16T02:56:02;9.45;;;4.10;;
71462;SDS011;59266;52.608;13.260;2023-07-16T02:58:29;10.75;;;3.97;;
71462;SDS011;59266;52.608;13.260;2023-07-16T03:00:58;10.63;;;4.38;;
71462;SDS011;59266;52.608;13.260;2023-07-16T03:03:27;7.47;;;3.95;;
71462;SDS011;59266;52.608;13.260;2023-07-16T03:06:01;8.15;;;4.60;;
71462;SDS011;59266;52.608;13.260;2023-07-16T03:08:28;7.03;;;3.83;;
71462;SDS011;59266;52.608;13.260;2023-07-16T03:10:56;10.27;;;3.92;;
71462;SDS011;59266;52.608;13.260;2023-07-16T03:15:53;8.45;;;3.63;;
71462;SDS011;59266;52.608;13.260;2023-07-16T03:18:20;10.48;;;3.85;;
71462;SDS011;59266;52.608;13.260;2023-07-16T03:20:47;7.60;;;3.72;;
71462;SDS011;59266;52.608;13.260;2023-07-16T03:23:13;8.48;;;4.22;;
71462;SDS011;59266;52.608;13.260;2023-07-16T03:25:40;9.38;;;4.03;;
71462;SDS011;59266;52.608;13.260;2023-07-16T03:28:08;9.20;;;3.97;;
71462;SDS011;59266;52.608;13.260;2023-07-16T03:30:34;9.30;;;3.80;;
71462;SDS011;59266;52.608;13.260;2023-07-16T03:33:03;9.40;;;3.58;;
71462;SDS011;59266;52.608;13.260;2023-07-16T03:35:30;8.18;;;4.13;;
71462;SDS011;59266;52.608;13.260;2023-07-16T03:37:56;9.27;;;4.07;;
71462;SDS011;59266;52.608;13.260;2023-07-16T03:40:24;8.90;;;4.80;;
71462;SDS011;59266;52.608;13.260;2023-07-16T03:42:53;8.32;;;3.92;;
71462;SDS011;59266;52.608;13.260;2023-07-16T03:45:20;8.00;;;3.90;;
71462;SDS011;59266;52.608;13.260;2023-07-16T03:47:47;7.95;;;4.05;;
71462;SDS011;59266;52.608;13.260;2023-07-16T03:50:14;8.10;;;4.10;;
71462;SDS011;59266;52.608;13.260;2023-07-16T03:52:41;7.90;;;4.13;;
71462;SDS011;59266;52.608;13.260;2023-07-16T03:55:08;7.07;;;3.97;;
71462;SDS011;59266;52.608;13.260;2023-07-16T03:57:35;8.70;;;4.47;;
71462;SDS011;59266;52.608;13.260;2023-07-16T04:00:03;11.27;;;4.55;;
71462;SDS011;59266;52.608;13.260;2023-07-16T04:02:35;10.10;;;4.25;;
71462;SDS011;59266;52.608;13.260;2023-07-16T04:05:02;8.35;;;4.20;;
71462;SDS011;59266;52.608;13.260;2023-07-16T04:07:29;9.65;;;4.30;;
71462;SDS011;59266;52.608;13.260;2023-07-16T04:09:56;8.40;;;4.00;;
71462;SDS011;59266;52.608;13.260;2023-07-16T04:12:24;8.70;;;4.10;;
71462;SDS011;59266;52.608;13.260;2023-07-16T04:14:54;8.57;;;3.90;;
71462;SDS011;59266;52.608;13.260;2023-07-16T04:19:48;11.20;;;3.80;;
71462;SDS011;59266;52.608;13.260;2023-07-16T04:22:15;9.07;;;3.70;;
71462;SDS011;59266;52.608;13.260;2023-07-16T04:24:42;7.65;;;3.70;;
71462;SDS011;59266;52.608;13.260;2023-07-16T04:27:08;9.27;;;3.60;;
71462;SDS011;59266;52.608;13.260;2023-07-16T04:29:35;7.22;;;3.72;;
71462;SDS011;59266;52.608;13.260;2023-07-16T04:32:03;8.57;;;3.70;;
71462;SDS011;59266;52.608;13.260;2023-07-16T04:34:30;8.05;;;3.67;;
71462;SDS011;59266;52.608;13.260;2023-07-16T04:36:57;7.97;;;3.58;;
71462;SDS011;59266;52.608;13.260;2023-07-16T04:39:23;8.80;;;3.60;;
71462;SDS011;59266;52.608;13.260;2023-07-16T04:41:51;9.45;;;3.72;;
71462;SDS011;59266;52.608;13.260;2023-07-16T04:44:18;7.63;;;3.80;;
71462;SDS011;59266;52.608;13.260;2023-07-16T04:46:45;6.95;;;3.50;;
71462;SDS011;59266;52.608;13.260;2023-07-16T04:49:12;8.15;;;3.00;;
71462;SDS011;59266;52.608;13.260;2023-07-16T04:51:39;6.88;;;3.17;;
71462;SDS011;59266;52.608;13.260;2023-07-16T04:54:06;7.85;;;3.33;;
71462;SDS011;59266;52.608;13.260;2023-07-16T04:56:32;7.22;;;3.38;;
71462;SDS011;59266;52.608;13.260;2023-07-16T04:59:01;7.65;;;3.70;;
71462;SDS011;59266;52.608;13.260;2023-07-16T05:01:28;7.57;;;3.50;;
71462;SDS011;59266;52.608;13.260;2023-07-16T05:03:55;8.23;;;3.70;;
71462;SDS011;59266;52.608;13.260;2023-07-16T05:06:22;8.95;;;3.78;;
71462;SDS011;59266;52.608;13.260;2023-07-16T05:08:48;13.38;;;3.70;;
71462;SDS011;59266;52.608;13.260;2023-07-16T05:11:15;8.40;;;3.08;;
71462;SDS011;59266;52.608;13.260;2023-07-16T05:13:42;7.47;;;3.45;;
71462;SDS011;59266;52.608;13.260;2023-07-16T05:16:10;6.65;;;3.28;;
71462;SDS011;59266;52.608;13.260;2023-07-16T05:18:36;6.75;;;2.95;;
71462;SDS011;59266;52.608;13.260;2023-07-16T05:21:04;9.02;;;3.13;;
71462;SDS011;59266;52.608;13.260;2023-07-16T05:23:31;6.70;;;3.33;;
71462;SDS011;59266;52.608;13.260;2023-07-16T05:25:59;6.53;;;3.00;;
71462;SDS011;59266;52.608;13.260;2023-07-16T05:28:26;8.63;;;3.47;;
71462;SDS011;59266;52.608;13.260;2023-07-16T05:30:59;6.13;;;3.10;;
71462;SDS011;59266;52.608;13.260;2023-07-16T05:33:27;7.65;;;3.53;;
71462;SDS011;59266;52.608;13.260;2023-07-16T05:35:54;6.88;;;3.20;;
71462;SDS011;59266;52.608;13.260;2023-07-16T05:38:21;8.02;;;2.88;;
71462;SDS011;59266;52.608;13.260;2023-07-16T05:40:48;6.30;;;3.13;;
71462;SDS011;59266;52.608;13.260;2023-07-16T05:43:15;6.25;;;3.00;;
71462;SDS011;59266;52.608;13.260;2023-07-16T05:45:45;7.50;;;3.47;;
71462;SDS011;59266;52.608;13.260;2023-07-16T05:48:13;7.32;;;4.10;;
71462;SDS011;59266;52.608;13.260;2023-07-16T05:50:40;7.88;;;3.55;;
71462;SDS011;59266;52.608;13.260;2023-07-16T05:53:10;8.00;;;3.35;;
71462;SDS011;59266;52.608;13.260;2023-07-16T05:55:39;8.02;;;3.33;;
71462;SDS011;59266;52.608;13.260;2023-07-16T05:58:06;7.22;;;2.92;;
71462;SDS011;59266;52.608;13.260;2023-07-16T06:00:36;7.28;;;2.90;;
71462;SDS011;59266;52.608;13.260;2023-07-16T06:03:03;6.60;;;3.05;;
71462;SDS011;59266;52.608;13.260;2023-07-16T06:05:30;6.70;;;3.00;;
71462;SDS011;59266;52.608;13.260;2023-07-16T06:08:00;5.80;;;2.60;;
71462;SDS011;59266;52.608;13.260;2023-07-16T06:10:27;8.93;;;2.67;;
71462;SDS011;59266;52.608;13.260;2023-07-16T06:12:54;7.72;;;2.70;;
71462;SDS011;59266;52.608;13.260;2023-07-16T06:15:21;7.80;;;3.33;;
71462;SDS011;59266;52.608;13.260;2023-07-16T06:17:49;6.90;;;2.50;;
71462;SDS011;59266;52.608;13.260;2023-07-16T06:20:16;6.75;;;2.50;;
71462;SDS011;59266;52.608;13.260;2023-07-16T06:22:44;6.80;;;2.63;;
71462;SDS011;59266;52.608;13.260;2023-07-16T06:25:14;7.60;;;2.63;;
71462;SDS011;59266;52.608;13.260;2023-07-16T06:27:40;8.00;;;2.70;;
71462;SDS011;59266;52.608;13.260;2023-07-16T06:30:07;7.97;;;2.75;;
71462;SDS011;59266;52.608;13.260;2023-07-16T06:32:34;5.05;;;2.30;;
71462;SDS011;59266;52.608;13.260;2023-07-16T06:35:00;5.35;;;2.40;;
71462;SDS011;59266;52.608;13.260;2023-07-16T06:37:27;8.77;;;2.72;;
71462;SDS011;59266;52.608;13.260;2023-07-16T06:39:54;5.40;;;2.30;;
71462;SDS011;59266;52.608;13.260;2023-07-16T06:42:21;5.68;;;2.15;;
71462;SDS011;59266;52.608;13.260;2023-07-16T06:44:48;6.57;;;2.45;;
71462;SDS011;59266;52.608;13.260;2023-07-16T06:47:15;5.60;;;2.08;;
71462;SDS011;59266;52.608;13.260;2023-07-16T06:49:42;5.68;;;2.38;;
71462;SDS011;59266;52.608;13.260;2023-07-16T06:52:20;7.70;;;2.42;;
71462;SDS011;59266;52.608;13.260;2023-07-16T06:54:47;5.95;;;2.60;;
71462;SDS011;59266;52.608;13.260;2023-07-16T06:57:14;6.28;;;2.60;;
71462;SDS011;59266;52.608;13.260;2023-07-16T06:59:41;5.20;;;2.60;;
71462;SDS011;59266;52.608;13.260;2023-07-16T07:02:07;6.15;;;2.45;;
71462;SDS011;59266;52.608;13.260;2023-07-16T07:04:34;7.53;;;2.30;;
71462;SDS011;59266;52.608;13.260;2023-07-16T07:07:01;7.82;;;2.50;;
71462;SDS011;59266;52.608;13.260;2023-07-16T07:09:28;7.25;;;2.35;;
71462;SDS011;59266;52.608;13.260;2023-07-16T07:11:56;6.88;;;2.53;;
71462;SDS011;59266;52.608;13.260;2023-07-16T07:14:23;5.90;;;2.20;;
71462;SDS011;59266;52.608;13.260;2023-07-16T07:16:49;6.97;;;2.35;;
71462;SDS011;59266;52.608;13.260;2023-07-16T07:19:18;5.38;;;2.17;;
71462;SDS011;59266;52.608;13.260;2023-07-16T07:21:50;5.80;;;2.22;;
71462;SDS011;59266;52.608;13.260;2023-07-16T07:24:17;5.55;;;2.58;;
71462;SDS011;59266;52.608;13.260;2023-07-16T07:26:47;5.43;;;2.60;;
71462;SDS011;59266;52.608;13.260;2023-07-16T07:29:14;5.75;;;2.50;;
71462;SDS011;59266;52.608;13.260;2023-07-16T07:31:41;6.38;;;2.28;;
71462;SDS011;59266;52.608;13.260;2023-07-16T07:34:07;8.93;;;2.63;;
71462;SDS011;59266;52.608;13.260;2023-07-16T07:36:36;5.55;;;2.20;;
71462;SDS011;59266;52.608;13.260;2023-07-16T07:39:03;6.35;;;2.22;;
71462;SDS011;59266;52.608;13.260;2023-07-16T07:41:30;6.25;;;2.20;;
71462;SDS011;59266;52.608;13.260;2023-07-16T07:43:58;4.88;;;1.83;;
71462;SDS011;59266;52.608;13.260;2023-07-16T07:46:25;5.90;;;2.05;;
71462;SDS011;59266;52.608;13.260;2023-07-16T07:48:52;7.65;;;1.98;;
71462;SDS011;59266;52.608;13.260;2023-07-16T07:51:20;4.90;;;2.08;;
71462;SDS011;59266;52.608;13.260;2023-07-16T07:53:48;7.32;;;2.35;;
71462;SDS011;59266;52.608;13.260;2023-07-16T07:56:15;6.85;;;2.20;;
71462;SDS011;59266;52.608;13.260;2023-07-16T07:58:42;4.82;;;1.98;;
71462;SDS011;59266;52.608;13.260;2023-07-16T08:01:09;6.60;;;2.20;;
71462;SDS011;59266;52.608;13.260;2023-07-16T08:03:36;5.03;;;1.95;;
71462;SDS011;59266;52.608;13.260;2023-07-16T08:06:03;6.05;;;2.10;;
71462;SDS011;59266;52.608;13.260;2023-07-16T08:08:31;8.35;;;2.15;;
71462;SDS011;59266;52.608;13.260;2023-07-16T08:10:57;4.45;;;1.77;;
71462;SDS011;59266;52.608;13.260;2023-07-16T08:13:26;4.30;;;1.70;;
71462;SDS011;59266;52.608;13.260;2023-07-16T08:15:52;6.70;;;2.33;;
71462;SDS011;59266;52.608;13.260;2023-07-16T08:18:20;5.47;;;2.10;;
71462;SDS011;59266;52.608;13.260;2023-07-16T08:20:47;5.18;;;1.83;;
71462;SDS011;59266;52.608;13.260;2023-07-16T08:23:14;6.75;;;2.58;;
71462;SDS011;59266;52.608;13.260;2023-07-16T08:25:42;6.70;;;2.42;;
71462;SDS011;59266;52.608;13.260;2023-07-16T08:28:11;5.55;;;1.83;;
71462;SDS011;59266;52.608;13.260;2023-07-16T08:30:40;6.40;;;2.22;;
71462;SDS011;59266;52.608;13.260;2023-07-16T08:33:08;5.45;;;1.85;;
71462;SDS011;59266;52.608;13.260;2023-07-16T08:35:34;5.95;;;1.98;;
71462;SDS011;59266;52.608;13.260;2023-07-16T08:38:01;8.80;;;2.53;;
71462;SDS011;59266;52.608;13.260;2023-07-16T08:40:28;6.18;;;2.03;;
71462;SDS011;59266;52.608;13.260;2023-07-16T08:42:55;6.40;;;2.00;;
71462;SDS011;59266;52.608;13.260;2023-07-16T08:45:23;7.57;;;2.40;;
71462;SDS011;59266;52.608;13.260;2023-07-16T08:47:53;7.75;;;2.50;;
71462;SDS011;59266;52.608;13.260;2023-07-16T08:50:22;6.10;;;2.20;;
71462;SDS011;59266;52.608;13.260;2023-07-16T08:52:50;6.25;;;2.00;;
71462;SDS011;59266;52.608;13.260;2023-07-16T08:55:18;6.45;;;2.20;;
71462;SDS011;59266;52.608;13.260;2023-07-16T08:57:45;5.72;;;1.85;;
71462;SDS011;59266;52.608;13.260;2023-07-16T09:00:13;5.80;;;2.17;;
71462;SDS011;59266;52.608;13.260;2023-07-16T09:02:42;10.27;;;2.28;;
71462;SDS011;59266;52.608;13.260;2023-07-16T09:05:09;7.13;;;2.47;;
71462;SDS011;59266;52.608;13.260;2023-07-16T09:07:46;5.80;;;2.15;;
71462;SDS011;59266;52.608;13.260;2023-07-16T09:10:12;5.57;;;2.08;;
71462;SDS011;59266;52.608;13.260;2023-07-16T09:12:43;5.43;;;1.90;;
71462;SDS011;59266;52.608;13.260;2023-07-16T09:15:10;5.28;;;1.75;;
71462;SDS011;59266;52.608;13.260;2023-07-16T09:17:39;6.30;;;2.20;;
71462;SDS011;59266;52.608;13.260;2023-07-16T09:20:06;5.93;;;1.85;;
71462;SDS011;59266;52.608;13.260;2023-07-16T09:22:35;7.13;;;1.85;;
71462;SDS011;59266;52.608;13.260;2023-07-16T09:25:02;7.03;;;1.80;;
71462;SDS011;59266;52.608;13.260;2023-07-16T09:27:30;6.07;;;1.90;;
71462;SDS011;59266;52.608;13.260;2023-07-16T09:29:57;5.00;;;1.90;;
71462;SDS011;59266;52.608;13.260;2023-07-16T09:32:37;5.55;;;1.63;;
71462;SDS011;59266;52.608;13.260;2023-07-16T09:35:14;4.45;;;1.58;;
71462;SDS011;59266;52.608;13.260;2023-07-16T09:37:43;5.97;;;1.88;;
71462;SDS011;59266;52.608;13.260;2023-07-16T09:40:11;5.03;;;1.70;;
71462;SDS011;59266;52.608;13.260;2023-07-16T09:42:42;5.38;;;1.85;;
71462;SDS011;59266;52.608;13.260;2023-07-16T09:45:25;5.35;;;1.85;;
71462;SDS011;59266;52.608;13.260;2023-07-16T09:48:02;5.40;;;1.90;;
71462;SDS011;59266;52.608;13.260;2023-07-16T09:50:33;5.18;;;1.80;;
71462;SDS011;59266;52.608;13.260;2023-07-16T09:53:03;6.95;;;1.77;;
71462;SDS011;59266;52.608;13.260;2023-07-16T09:58:05;5.72;;;1.70;;
71462;SDS011;59266;52.608;13.260;2023-07-16T10:00:35;6.53;;;1.90;;
71462;SDS011;59266;52.608;13.260;2023-07-16T10:03:05;7.88;;;1.92;;
71462;SDS011;59266;52.608;13.260;2023-07-16T10:05:35;6.03;;;1.95;;
71462;SDS011;59266;52.608;13.260;2023-07-16T10:08:03;5.22;;;2.08;;
71462;SDS011;59266;52.608;13.260;2023-07-16T10:10:38;6.20;;;1.90;;
71462;SDS011;59266;52.608;13.260;2023-07-16T10:13:11;4.72;;;1.80;;
71462;SDS011;59266;52.608;13.260;2023-07-16T10:15:39;5.90;;;1.52;;
71462;SDS011;59266;52.608;13.260;2023-07-16T10:18:50;6.70;;;1.90;;
71462;SDS011;59266;52.608;13.260;2023-07-16T10:23:56;7.18;;;2.20;;
71462;SDS011;59266;52.608;13.260;2023-07-16T10:26:29;8.48;;;1.90;;
71462;SDS011;59266;52.608;13.260;2023-07-16T10:28:56;6.68;;;1.95;;
71462;SDS011;59266;52.608;13.260;2023-07-16T10:31:24;6.47;;;2.08;;
71462;SDS011;59266;52.608;13.260;2023-07-16T10:33:59;5.78;;;2.30;;
71462;SDS011;59266;52.608;13.260;2023-07-16T10:36:40;6.18;;;1.80;;
71462;SDS011;59266;52.608;13.260;2023-07-16T10:39:09;8.20;;;2.15;;
71462;SDS011;59266;52.608;13.260;2023-07-16T10:41:39;6.40;;;2.20;;
71462;SDS011;59266;52.608;13.260;2023-07-16T10:44:07;5.97;;;2.00;;
71462;SDS011;59266;52.608;13.260;2023-07-16T10:46:35;8.32;;;2.10;;
71462;SDS011;59266;52.608;13.260;2023-07-16T10:49:04;5.15;;;1.95;;
71462;SDS011;59266;52.608;13.260;2023-07-16T10:51:31;5.80;;;2.05;;
71462;SDS011;59266;52.608;13.260;2023-07-16T10:53:57;6.28;;;2.20;;
71462;SDS011;59266;52.608;13.260;2023-07-16T10:56:25;5.53;;;1.83;;
71462;SDS011;59266;52.608;13.260;2023-07-16T10:58:52;4.70;;;1.83;;
71462;SDS011;59266;52.608;13.260;2023-07-16T11:01:18;4.95;;;1.90;;
71462;SDS011;59266;52.608;13.260;2023-07-16T11:03:49;7.65;;;2.33;;
71462;SDS011;59266;52.608;13.260;2023-07-16T11:06:17;7.75;;;1.98;;
71462;SDS011;59266;52.608;13.260;2023-07-16T11:08:45;4.60;;;1.65;;
71462;SDS011;59266;52.608;13.260;2023-07-16T11:11:12;7.18;;;2.05;;
71462;SDS011;59266;52.608;13.260;2023-07-16T11:13:40;4.43;;;1.80;;
71462;SDS011;59266;52.608;13.260;2023-07-16T11:16:15;5.55;;;1.85;;
71462;SDS011;59266;52.608;13.260;2023-07-16T11:18:43;5.50;;;1.80;;
71462;SDS011;59266;52.608;13.260;2023-07-16T11:21:10;6.40;;;2.00;;
71462;SDS011;59266;52.608;13.260;2023-07-16T11:23:37;6.18;;;2.25;;
71462;SDS011;59266;52.608;13.260;2023-07-16T11:26:04;6.70;;;1.95;;
71462;SDS011;59266;52.608;13.260;2023-07-16T11:28:38;6.13;;;2.05;;
71462;SDS011;59266;52.608;13.260;2023-07-16T11:31:15;8.88;;;4.15;;
71462;SDS011;59266;52.608;13.260;2023-07-16T11:33:44;7.43;;;2.17;;
71462;SDS011;59266;52.608;13.260;2023-07-16T11:36:11;8.30;;;2.25;;
71462;SDS011;59266;52.608;13.260;2023-07-16T11:38:39;4.40;;;1.80;;
71462;SDS011;59266;52.608;13.260;2023-07-16T11:41:06;4.80;;;1.90;;
71462;SDS011;59266;52.608;13.260;2023-07-16T11:43:39;5.03;;;1.73;;
71462;SDS011;59266;52.608;13.260;2023-07-16T11:46:14;6.35;;;1.90;;
71462;SDS011;59266;52.608;13.260;2023-07-16T11:48:45;6.07;;;1.85;;
71462;SDS011;59266;52.608;13.260;2023-07-16T11:51:12;5.43;;;2.00;;
71462;SDS011;59266;52.608;13.260;2023-07-16T11:53:39;5.93;;;1.80;;
71462;SDS011;59266;52.608;13.260;2023-07-16T11:56:07;7.97;;;2.05;;
71462;SDS011;59266;52.608;13.260;2023-07-16T11:58:34;5.45;;;2.00;;
71462;SDS011;59266;52.608;13.260;2023-07-16T12:01:03;16.48;;;2.25;;
71462;SDS011;59266;52.608;13.260;2023-07-16T12:03:32;5.60;;;1.70;;
71462;SDS011;59266;52.608;13.260;2023-07-16T12:05:59;5.45;;;1.67;;
71462;SDS011;59266;52.608;13.260;2023-07-16T12:08:25;6.57;;;2.00;;
71462;SDS011;59266;52.608;13.260;2023-07-16T12:10:52;8.48;;;1.90;;
71462;SDS011;59266;52.608;13.260;2023-07-16T12:13:20;5.50;;;1.88;;
71462;SDS011;59266;52.608;13.260;2023-07-16T12:15:46;5.53;;;1.67;;
71462;SDS011;59266;52.608;13.260;2023-07-16T12:18:13;9.48;;;2.30;;
71462;SDS011;59266;52.608;13.260;2023-07-16T12:20:42;6.75;;;1.90;;
71462;SDS011;59266;52.608;13.260;2023-07-16T12:23:11;9.38;;;1.70;;
71462;SDS011;59266;52.608;13.260;2023-07-16T12:25:38;6.05;;;1.90;;
71462;SDS011;59266;52.608;13.260;2023-07-16T12:28:05;6.10;;;1.80;;
71462;SDS011;59266;52.608;13.260;2023-07-16T12:30:31;6.43;;;2.05;;
71462;SDS011;59266;52.608;13.260;2023-07-16T12:32:58;4.57;;;1.48;;
71462;SDS011;59266;52.608;13.260;2023-07-16T12:35:25;7.60;;;1.80;;
71462;SDS011;59266;52.608;13.260;2023-07-16T12:37:52;6.07;;;1.65;;
71462;SDS011;59266;52.608;13.260;2023-07-16T12:40:19;7.82;;;2.20;;
71462;SDS011;59266;52.608;13.260;2023-07-16T12:42:46;5.13;;;1.83;;
71462;SDS011;59266;52.608;13.260;2023-07-16T12:45:13;7.97;;;2.92;;
71462;SDS011;59266;52.608;13.260;2023-07-16T12:47:40;6.97;;;2.67;;
71462;SDS011;59266;52.608;13.260;2023-07-16T12:50:09;9.77;;;4.90;;
71462;SDS011;59266;52.608;13.260;2023-07-16T12:52:36;11.57;;;5.30;;
71462;SDS011;59266;52.608;13.260;2023-07-16T12:55:03;6.00;;;2.15;;
71462;SDS011;59266;52.608;13.260;2023-07-16T12:57:29;7.30;;;2.85;;
71462;SDS011;59266;52.608;13.260;2023-07-16T12:59:56;5.82;;;1.90;;
71462;SDS011;59266;52.608;13.260;2023-07-16T13:02:23;5.53;;;2.30;;
71462;SDS011;59266;52.608;13.260;2023-07-16T13:04:53;12.43;;;6.57;;
71462;SDS011;59266;52.608;13.260;2023-07-16T13:07:21;5.90;;;2.05;;
71462;SDS011;59266;52.608;13.260;2023-07-16T13:09:51;7.93;;;3.40;;
71462;SDS011;59266;52.608;13.260;2023-07-16T13:12:37;7.05;;;2.28;;
71462;SDS011;59266;52.608;13.260;2023-07-16T13:15:04;7.40;;;2.35;;
71462;SDS011;59266;52.608;13.260;2023-07-16T13:17:31;7.25;;;2.10;;
71462;SDS011;59266;52.608;13.260;2023-07-16T13:19:58;5.88;;;1.80;;
71462;SDS011;59266;52.608;13.260;2023-07-16T13:22:24;5.15;;;1.55;;
71462;SDS011;59266;52.608;13.260;2023-07-16T13:24:51;5.07;;;1.90;;
71462;SDS011;59266;52.608;13.260;2023-07-16T13:27:22;6.45;;;1.85;;
71462;SDS011;59266;52.608;13.260;2023-07-16T13:29:49;6.15;;;2.08;;
71462;SDS011;59266;52.608;13.260;2023-07-16T13:32:18;6.03;;;1.80;;
71462;SDS011;59266;52.608;13.260;2023-07-16T13:35:00;6.80;;;1.85;;
71462;SDS011;59266;52.608;13.260;2023-07-16T13:37:33;6.95;;;1.90;;
71462;SDS011;59266;52.608;13.260;2023-07-16T13:40:00;6.07;;;1.90;;
71462;SDS011;59266;52.608;13.260;2023-07-16T13:42:27;5.65;;;1.83;;
71462;SDS011;59266;52.608;13.260;2023-07-16T13:44:54;6.18;;;1.98;;
71462;SDS011;59266;52.608;13.260;2023-07-16T13:47:21;6.78;;;1.70;;
71462;SDS011;59266;52.608;13.260;2023-07-16T13:49:50;4.80;;;1.70;;
71462;SDS011;59266;52.608;13.260;2023-07-16T13:52:18;6.53;;;1.83;;
71462;SDS011;59266;52.608;13.260;2023-07-16T13:54:45;6.15;;;1.58;;
71462;SDS011;59266;52.608;13.260;2023-07-16T13:57:13;5.88;;;1.70;;
71462;SDS011;59266;52.608;13.260;2023-07-16T13:59:40;6.25;;;2.00;;
71462;SDS011;59266;52.608;13.260;2023-07-16T14:02:07;6.05;;;1.77;;
71462;SDS011;59266;52.608;13.260;2023-07-16T14:04:34;6.15;;;1.70;;
71462;SDS011;59266;52.608;13.260;2023-07-16T14:07:01;5.68;;;1.77;;
71462;SDS011;59266;52.608;13.260;2023-07-16T14:09:28;7.55;;;1.75;;
71462;SDS011;59266;52.608;13.260;2023-07-16T14:11:55;4.97;;;1.77;;
71462;SDS011;59266;52.608;13.260;2023-07-16T14:14:26;8.25;;;1.85;;
71462;SDS011;59266;52.608;13.260;2023-07-16T14:16:57;6.13;;;1.90;;
71462;SDS011;59266;52.608;13.260;2023-07-16T14:19:25;5.10;;;1.65;;
71462;SDS011;59266;52.608;13.260;2023-07-16T14:21:53;6.50;;;2.15;;
71462;SDS011;59266;52.608;13.260;2023-07-16T14:24:20;6.82;;;2.15;;
71462;SDS011;59266;52.608;13.260;2023-07-16T14:26:48;5.88;;;1.65;;
71462;SDS011;59266;52.608;13.260;2023-07-16T14:29:15;6.07;;;1.80;;
71462;SDS011;59266;52.608;13.260;2023-07-16T14:31:42;5.93;;;1.70;;
71462;SDS011;59266;52.608;13.260;2023-07-16T14:34:09;4.63;;;1.55;;
71462;SDS011;59266;52.608;13.260;2023-07-16T14:36:40;7.60;;;1.88;;
71462;SDS011;59266;52.608;13.260;2023-07-16T14:39:07;6.45;;;1.90;;
71462;SDS011;59266;52.608;13.260;2023-07-16T14:41:39;7.93;;;1.70;;
71462;SDS011;59266;52.608;13.260;2023-07-16T14:44:05;4.88;;;1.60;;
71462;SDS011;59266;52.608;13.260;2023-07-16T14:46:32;5.18;;;1.60;;
71462;SDS011;59266;52.608;13.260;2023-07-16T14:48:59;6.20;;;1.73;;
71462;SDS011;59266;52.608;13.260;2023-07-16T14:51:28;7.82;;;1.98;;
71462;SDS011;59266;52.608;13.260;2023-07-16T14:53:58;6.25;;;1.90;;
71462;SDS011;59266;52.608;13.260;2023-07-16T14:56:24;7.80;;;1.92;;
71462;SDS011;59266;52.608;13.260;2023-07-16T14:58:52;15.52;;;2.05;;